| time (UTC) | temp F | wind direction | speed MPH | gust MPH | rain 1hr in | rain 24hr in | rain mn in | humidity % | barometer mb |
| 20260906131545 | 69 | 0.0 | 0.0 | 0.00 | 0.05 | 0.05 | 92 | -0.1 | |
| 20260906124533 | 68 | 0.0 | 0.0 | 0.00 | 0.05 | 0.05 | 92 | -0.1 | |
| 20260906121529 | 67 | 0.0 | 0.0 | 0.00 | 0.05 | 0.05 | 91 | -0.1 | |
| 20260906114538 | 68 | 0.0 | 0.0 | 0.00 | 0.05 | 0.05 | 91 | -0.1 | |
| 20260906111533 | 70 | 0.0 | 0.0 | 0.01 | 0.05 | 0.05 | 92 | -0.1 | |
| 20260906104526 | 71 | 0.0 | 0.0 | 0.01 | 0.05 | 0.05 | 92 | -0.1 | |
| 20260906101522 | 71 | 0.0 | 0.0 | 0.00 | 0.04 | 0.04 | 92 | -0.1 | |
| 20260906094517 | 71 | 0.0 | 0.0 | 0.00 | 0.04 | 0.04 | 92 | -0.1 | |
| 20260906091537 | 72 | 0.0 | 0.0 | 0.03 | 0.04 | 0.04 | 91 | -0.1 | |
| 20260906084531 | 72 | 0.0 | 0.0 | 0.04 | 0.04 | 0.04 | 90 | -0.1 | |
| 20260906081528 | 72 | 0.0 | 0.0 | 0.01 | 0.01 | 0.01 | 88 | -0.1 | |
| 20260906074521 | 73 | 0.0 | 0.0 | 0.00 | 0.00 | 0.00 | 86 | -0.1 | |
| 20260906071537 | 73 | 0.0 | 0.0 | 0.00 | 0.00 | 0.00 | 85 | -0.1 | |
| 20260906064522 | 73 | 0.0 | 0.0 | 0.00 | 0.00 | 0.00 | 84 | -0.1 | |
| 20260906061539 | 73 | 0.0 | 0.0 | 0.00 | 0.00 | 0.00 | 84 | -0.1 | |
| 20260906054531 | 73 | 0.0 | 0.0 | 0.00 | 0.00 | 0.00 | 81 | -0.1 | |
| 20260906051528 | 74 | 0.0 | 0.0 | 0.00 | 0.00 | 0.00 | 79 | -0.1 | |
| 20260906044537 | 73 | 0.0 | 0.0 | 0.00 | 0.00 | 0.00 | 78 | -0.1 | |
| 20260906041533 | 73 | 0.0 | 0.0 | 0.00 | 0.00 | 0.00 | 78 | -0.1 | |
| 20260906034549 | 74 | 0.0 | 0.0 | 0.00 | 0.00 | 0.00 | 77 | -0.1 | |
| 20260906031529 | 74 | 0.0 | 0.0 | 0.00 | 0.00 | 0.00 | 78 | -0.1 | |
| 20260906024518 | 74 | 0.0 | 0.0 | 0.00 | 0.00 | 0.00 | 77 | -0.1 | |
| 20260906021534 | 74 | 0.0 | 0.0 | 0.00 | 0.00 | 0.00 | 77 | -0.1 | |
| 20260906014529 | 76 | 298 | 3.0 | 7.0 | 0.00 | 0.00 | 0.00 | 73 | -0.1 |
| 20260906011525 | 77 | 292 | 4.0 | 8.0 | 0.00 | 0.00 | 0.00 | 63 | -0.1 |
| 20260906004537 | 79 | 276 | 3.0 | 9.0 | 0.00 | 0.00 | 0.00 | 58 | -0.1 |
| 20260906001534 | 81 | 288 | 4.0 | 9.0 | 0.00 | 0.00 | 0.00 | 53 | -0.1 |
| 20260905234528 | 81 | 281 | 4.0 | 12.0 | 0.00 | 0.00 | 0.00 | 63 | -0.1 |
| 20260905231525 | 82 | 268 | 5.0 | 10.0 | 0.00 | 0.00 | 0.00 | 55 | -0.1 |
| 20260905224521 | 83 | 301 | 5.0 | 10.0 | 0.00 | 0.00 | 0.00 | 53 | -0.1 |
| 20260905221536 | 84 | 249 | 5.0 | 10.0 | 0.00 | 0.00 | 0.00 | 58 | -0.1 |
| 20260905214527 | 83 | 284 | 6.0 | 11.0 | 0.00 | 0.00 | 0.00 | 59 | -0.1 |
| 20260905211544 | 83 | 267 | 4.0 | 10.0 | 0.00 | 0.00 | 0.00 | 69 | -0.1 |
| 20260905204515 | 82 | 274 | 5.0 | 12.0 | 0.00 | 0.00 | 0.00 | 64 | -0.1 |
| 20260905201536 | 81 | 317 | 4.0 | 10.0 | 0.00 | 0.00 | 0.00 | 65 | -0.1 |
| 20260905194525 | 79 | 276 | 6.0 | 8.0 | 0.00 | 0.00 | 0.00 | 67 | -0.1 |
| 20260905191538 | 77 | 246 | 3.0 | 5.0 | 0.00 | 0.00 | 0.00 | 73 | -0.1 |
| 20260905184528 | 77 | 285 | 2.0 | 5.0 | 0.00 | 0.00 | 0.00 | 72 | -0.1 |
| 20260905181521 | 77 | 285 | 4.0 | 7.0 | 0.00 | 0.00 | 0.00 | 71 | -0.1 |
| 20260905174533 | 76 | 235 | 0.0 | 3.0 | 0.00 | 0.00 | 0.00 | 70 | -0.1 |
| 20260905171523 | 74 | 248 | 3.0 | 4.0 | 0.00 | 0.00 | 0.00 | 76 | -0.1 |
| 20260905164529 | 70 | 265 | 2.0 | 3.0 | 0.00 | 0.00 | 0.00 | 82 | -0.1 |
| 20260905161523 | 67 | 0.0 | 0.0 | 0.00 | 0.00 | 0.00 | 89 | -0.1 | |
| 20260905154551 | 64 | 0.0 | 0.0 | 0.00 | 0.00 | 0.00 | 93 | -0.1 | |
| 20260905151523 | 63 | 0.0 | 0.0 | 0.00 | 0.00 | 0.00 | 93 | -0.1 | |
| 20260905144556 | 61 | 0.0 | 0.0 | 0.00 | 0.00 | 0.00 | 93 | -0.1 | |
| 20260905141529 | 60 | 0.0 | 0.0 | 0.00 | 0.00 | 0.00 | 93 | -0.1 | |
| 20260905134535 | 60 | 0.0 | 0.0 | 0.00 | 0.00 | 0.00 | 93 | -0.1 |